createdAt,value
2023-01-15T00:00:28.356Z,93.80
2023-01-15T00:02:51.176Z,93.90
2023-01-15T00:05:13.829Z,93.85
2023-01-15T00:07:36.604Z,93.83
2023-01-15T00:10:02.085Z,93.82
2023-01-15T00:12:25.592Z,93.69
2023-01-15T00:14:48.213Z,93.84
2023-01-15T00:17:10.840Z,93.98
2023-01-15T00:19:33.999Z,93.98
2023-01-15T00:21:58.319Z,94.04
2023-01-15T00:24:39.635Z,94.01
2023-01-15T00:27:21.111Z,94.02
2023-01-15T00:29:44.397Z,94.18
2023-01-15T00:32:08.613Z,94.08
2023-01-15T00:34:32.740Z,94.36
2023-01-15T00:36:56.498Z,93.97
2023-01-15T00:39:19.126Z,93.96
2023-01-15T00:41:42.588Z,93.51
2023-01-15T00:44:05.379Z,93.66
2023-01-15T00:46:28.004Z,93.65
2023-01-15T00:48:50.816Z,93.70
2023-01-15T00:51:13.695Z,93.63
2023-01-15T00:53:36.388Z,93.72
2023-01-15T00:55:59.939Z,93.84
2023-01-15T00:58:24.577Z,93.64
2023-01-15T01:00:47.383Z,93.62
2023-01-15T01:03:10.269Z,93.57
2023-01-15T01:05:35.033Z,93.72
2023-01-15T01:07:59.335Z,93.74
2023-01-15T01:10:23.215Z,93.66
2023-01-15T01:12:48.641Z,93.57
2023-01-15T01:15:11.351Z,93.41
2023-01-15T01:17:33.987Z,93.57
2023-01-15T01:19:56.909Z,93.51
2023-01-15T01:22:19.617Z,93.56
2023-01-15T01:24:42.187Z,93.62
2023-01-15T01:27:04.747Z,93.74
2023-01-15T01:29:27.981Z,93.71
2023-01-15T01:31:51.392Z,93.52
2023-01-15T01:34:14.987Z,93.72
2023-01-15T01:36:39.376Z,93.84
2023-01-15T01:39:03.674Z,93.98
2023-01-15T01:41:28.753Z,94.01
2023-01-15T01:44:03.875Z,94.02
2023-01-15T01:46:29.020Z,94.21
2023-01-15T01:48:59.228Z,94.24
2023-01-15T01:51:26.281Z,94.19
2023-01-15T01:53:49.927Z,94.23
2023-01-15T01:56:12.963Z,94.30
2023-01-15T01:58:36.111Z,94.12
2023-01-15T02:01:00.015Z,94.01
2023-01-15T02:03:25.739Z,93.86
2023-01-15T02:05:55.766Z,94.10
2023-01-15T02:08:18.896Z,94.12
2023-01-15T02:10:42.723Z,94.10
2023-01-15T02:13:19.331Z,94.14
2023-01-15T02:15:47.390Z,94.14
2023-01-15T02:18:26.192Z,94.37
2023-01-15T02:21:01.652Z,94.37
2023-01-15T02:23:53.334Z,94.19
2023-01-15T02:26:19.094Z,94.43
2023-01-15T02:28:46.574Z,94.28
2023-01-15T02:31:31.128Z,94.28
2023-01-15T02:34:10.303Z,94.55
2023-01-15T02:36:37.496Z,94.55
2023-01-15T02:39:06.481Z,94.41
2023-01-15T02:41:34.810Z,94.40
2023-01-15T02:44:01.353Z,94.44
2023-01-15T02:46:29.123Z,94.54
2023-01-15T02:48:55.628Z,94.56
2023-01-15T02:51:24.135Z,94.72
2023-01-15T02:53:51.487Z,94.61
2023-01-15T02:56:22.142Z,94.50
2023-01-15T02:58:50.064Z,94.50
2023-01-15T03:01:24.660Z,94.37
2023-01-15T03:04:07.348Z,94.40
2023-01-15T03:06:41.482Z,94.48
2023-01-15T03:09:05.190Z,94.61
2023-01-15T03:11:29.056Z,94.59
2023-01-15T03:14:04.447Z,94.69
2023-01-15T03:16:36.104Z,94.61
2023-01-15T03:19:18.344Z,94.56
2023-01-15T03:21:52.250Z,94.59
2023-01-15T03:24:21.085Z,94.55
2023-01-15T03:26:43.951Z,94.48
2023-01-15T03:29:09.687Z,94.44
2023-01-15T03:31:34.242Z,94.37
2023-01-15T03:33:56.949Z,94.26
2023-01-15T03:36:20.384Z,94.18
2023-01-15T03:38:47.274Z,94.17
2023-01-15T03:41:41.931Z,94.15
2023-01-15T03:44:44.481Z,94.30
2023-01-15T03:47:20.197Z,94.45
2023-01-15T03:50:01.574Z,94.37
2023-01-15T03:52:40.942Z,94.34
2023-01-15T03:55:24.101Z,94.23
2023-01-15T03:58:02.661Z,94.14
2023-01-15T04:00:40.875Z,94.00
2023-01-15T04:03:07.320Z,94.07
2023-01-15T04:05:31.953Z,94.01
2023-01-15T04:07:56.615Z,93.95
2023-01-15T04:10:23.047Z,93.87
2023-01-15T04:12:47.972Z,93.89
2023-01-15T04:15:12.485Z,94.05
2023-01-15T04:17:35.220Z,93.89
2023-01-15T04:20:01.466Z,93.82
2023-01-15T04:22:26.306Z,93.81
2023-01-15T04:24:48.884Z,93.86
2023-01-15T04:27:11.536Z,93.47
2023-01-15T04:29:37.957Z,93.38
2023-01-15T04:32:00.659Z,93.32
2023-01-15T04:34:28.216Z,93.51
2023-01-15T04:36:50.909Z,93.64
2023-01-15T04:39:13.974Z,93.78
2023-01-15T04:41:55.879Z,93.92
2023-01-15T04:44:18.590Z,93.97
2023-01-15T04:46:46.211Z,94.07
2023-01-15T04:49:13.271Z,94.09
2023-01-15T04:51:36.210Z,94.01
2023-01-15T04:53:59.406Z,93.93
2023-01-15T04:56:22.129Z,94.00
2023-01-15T04:58:45.012Z,94.18
2023-01-15T05:01:16.217Z,94.24
2023-01-15T05:03:38.968Z,94.24
2023-01-15T05:06:02.718Z,94.32
2023-01-15T05:08:25.353Z,94.32
2023-01-15T05:10:47.911Z,94.33
2023-01-15T05:13:10.705Z,94.30
2023-01-15T05:15:33.324Z,94.31
2023-01-15T05:17:56.900Z,94.28
2023-01-15T05:20:19.871Z,94.25
2023-01-15T05:22:43.488Z,94.23
2023-01-15T05:25:06.536Z,94.22
2023-01-15T05:27:31.154Z,94.27
2023-01-15T05:29:55.563Z,94.22
2023-01-15T05:32:18.299Z,94.27
2023-01-15T05:34:40.965Z,94.25
2023-01-15T05:37:03.521Z,94.24
2023-01-15T05:39:26.395Z,94.16
2023-01-15T05:41:49.209Z,94.08
2023-01-15T05:44:13.100Z,94.00
2023-01-15T05:46:38.149Z,94.12
2023-01-15T05:49:02.184Z,94.12
2023-01-15T05:51:25.076Z,94.00
2023-01-15T05:53:47.598Z,93.99
2023-01-15T05:56:10.375Z,93.98
2023-01-15T05:58:33.331Z,93.94
2023-01-15T06:00:56.484Z,93.85
2023-01-15T06:03:19.239Z,93.76
2023-01-15T06:05:41.970Z,93.77
2023-01-15T06:08:04.781Z,93.78
2023-01-15T06:10:27.531Z,93.68
2023-01-15T06:12:49.996Z,93.80
2023-01-15T06:15:13.038Z,94.06
2023-01-15T06:17:35.872Z,94.09
2023-01-15T06:19:59.927Z,94.04
2023-01-15T06:22:22.591Z,94.00
2023-01-15T06:24:46.147Z,94.05
2023-01-15T06:27:08.755Z,94.12
2023-01-15T06:29:31.940Z,94.01
2023-01-15T06:31:54.636Z,93.95
2023-01-15T06:34:17.471Z,93.75
2023-01-15T06:36:40.152Z,93.84
2023-01-15T06:39:05.161Z,93.84
2023-01-15T06:41:46.819Z,93.84
2023-01-15T06:44:36.518Z,93.78
2023-01-15T06:47:21.343Z,93.76
2023-01-15T06:49:44.325Z,93.64
2023-01-15T06:52:07.373Z,93.56
2023-01-15T06:54:30.493Z,93.58
2023-01-15T06:56:53.254Z,93.47
2023-01-15T06:59:16.126Z,93.35
2023-01-15T07:01:39.253Z,93.23
2023-01-15T07:04:02.067Z,93.24
2023-01-15T07:06:26.425Z,93.20
2023-01-15T07:08:49.272Z,93.05
2023-01-15T07:11:12.525Z,92.93
2023-01-15T07:13:35.520Z,92.90
2023-01-15T07:15:59.811Z,92.80
2023-01-15T07:18:22.597Z,92.59
2023-01-15T07:20:45.229Z,92.57
2023-01-15T07:23:07.875Z,92.59
2023-01-15T07:25:30.469Z,92.75
2023-01-15T07:27:53.300Z,92.69
2023-01-15T07:30:17.422Z,92.55
2023-01-15T07:32:42.287Z,92.62
2023-01-15T07:35:05.189Z,92.63
2023-01-15T07:37:28.727Z,92.56
2023-01-15T07:39:51.800Z,92.49
2023-01-15T07:42:33.367Z,92.50
2023-01-15T07:45:14.689Z,92.32
2023-01-15T07:47:57.781Z,92.36
2023-01-15T07:50:25.020Z,92.46
2023-01-15T07:52:53.139Z,92.37
2023-01-15T07:55:16.231Z,92.44
2023-01-15T07:57:40.077Z,92.43
2023-01-15T08:00:13.335Z,92.22
2023-01-15T08:02:37.737Z,91.95
2023-01-15T08:05:00.409Z,92.07
2023-01-15T08:07:23.039Z,91.77
2023-01-15T08:09:47.314Z,91.94
2023-01-15T08:12:29.764Z,91.80
2023-01-15T08:15:11.205Z,91.76
2023-01-15T08:17:37.825Z,91.33
2023-01-15T08:20:11.197Z,91.60
2023-01-15T08:22:34.187Z,91.55
2023-01-15T08:24:56.871Z,91.58
2023-01-15T08:27:19.581Z,91.22
2023-01-15T08:29:45.674Z,90.84
2023-01-15T08:32:08.997Z,90.67
2023-01-15T08:34:31.806Z,90.44
2023-01-15T08:36:59.852Z,90.08
2023-01-15T08:39:22.469Z,89.76
2023-01-15T08:41:45.155Z,89.53
2023-01-15T08:44:08.051Z,89.86
2023-01-15T08:46:30.812Z,90.00
2023-01-15T08:48:53.521Z,90.40
2023-01-15T08:51:16.531Z,90.24
2023-01-15T08:53:39.439Z,89.91
2023-01-15T08:56:02.385Z,89.63
2023-01-15T08:58:45.428Z,89.34
2023-01-15T09:01:27.963Z,88.88
2023-01-15T09:03:50.739Z,88.43
2023-01-15T09:06:13.710Z,88.36
2023-01-15T09:08:36.438Z,88.16
2023-01-15T09:11:00.509Z,88.68
2023-01-15T09:13:23.131Z,88.83
2023-01-15T09:15:45.733Z,88.37
2023-01-15T09:18:10.789Z,89.15
2023-01-15T09:20:34.205Z,89.17
2023-01-15T09:22:57.015Z,88.20
2023-01-15T09:25:20.382Z,88.39
2023-01-15T09:27:43.029Z,88.60
2023-01-15T09:30:07.341Z,88.34
2023-01-15T09:32:30.219Z,88.46
2023-01-15T09:34:52.904Z,88.51
2023-01-15T09:37:16.633Z,88.57
2023-01-15T09:39:40.017Z,88.72
2023-01-15T09:42:22.145Z,88.27
2023-01-15T09:45:06.698Z,87.73
2023-01-15T09:47:32.069Z,87.53
2023-01-15T09:50:25.814Z,87.32
2023-01-15T09:52:51.229Z,86.82
2023-01-15T09:55:18.529Z,86.79
2023-01-15T09:57:42.758Z,86.32
2023-01-15T10:00:07.440Z,86.36
2023-01-15T10:03:01.552Z,85.79
2023-01-15T10:05:44.621Z,85.86
2023-01-15T10:08:15.842Z,86.25
2023-01-15T10:10:50.210Z,86.14
2023-01-15T10:13:26.148Z,85.97
2023-01-15T10:15:49.254Z,86.11
2023-01-15T10:18:19.687Z,85.59
2023-01-15T10:20:51.825Z,85.67
2023-01-15T10:23:42.498Z,85.86
2023-01-15T10:26:18.891Z,85.71
2023-01-15T10:29:16.757Z,85.63
2023-01-15T10:31:48.496Z,85.34
2023-01-15T10:34:11.054Z,85.43
2023-01-15T10:36:42.320Z,85.34
2023-01-15T10:39:26.878Z,85.07
2023-01-15T10:42:03.878Z,84.20
2023-01-15T10:44:41.648Z,83.71
2023-01-15T10:47:12.583Z,83.08
2023-01-15T10:49:37.313Z,83.64
2023-01-15T10:52:07.455Z,82.59
2023-01-15T10:54:32.286Z,82.62
2023-01-15T10:57:16.429Z,82.95
2023-01-15T10:59:59.313Z,83.19
2023-01-15T11:02:43.478Z,82.62
2023-01-15T11:05:12.113Z,82.87
2023-01-15T11:08:02.744Z,83.26
2023-01-15T11:10:24.896Z,83.00
2023-01-15T11:13:08.943Z,82.65
2023-01-15T11:15:50.300Z,82.64
2023-01-15T11:18:49.026Z,82.05
2023-01-15T11:21:17.978Z,81.37
2023-01-15T11:23:40.526Z,82.16
2023-01-15T11:26:03.856Z,81.66
2023-01-15T11:28:36.488Z,81.48
2023-01-15T11:30:59.530Z,81.49
2023-01-15T11:33:28.010Z,82.05
2023-01-15T11:35:59.576Z,81.54
2023-01-15T11:38:23.586Z,81.48
2023-01-15T11:41:23.054Z,81.21
2023-01-15T11:44:13.259Z,81.55
2023-01-15T11:46:54.811Z,81.32
2023-01-15T11:49:38.305Z,81.16
2023-01-15T11:52:02.511Z,80.96
2023-01-15T11:54:26.505Z,80.14
2023-01-15T11:56:49.399Z,80.19
2023-01-15T11:59:14.681Z,80.06
2023-01-15T12:01:43.276Z,79.63
2023-01-15T12:04:22.332Z,79.79
2023-01-15T12:06:45.050Z,79.83
2023-01-15T12:09:45.043Z,79.25
2023-01-15T12:12:13.510Z,79.51
2023-01-15T12:15:04.136Z,78.77
2023-01-15T12:17:53.750Z,78.37
2023-01-15T12:20:34.495Z,78.24
2023-01-15T12:23:02.814Z,77.63
2023-01-15T12:25:55.425Z,77.33
2023-01-15T12:28:28.102Z,76.61
2023-01-15T12:31:08.630Z,76.29
2023-01-15T12:33:48.928Z,76.73
2023-01-15T12:36:36.131Z,76.79
2023-01-15T12:39:00.649Z,76.99
2023-01-15T12:41:48.065Z,76.34
2023-01-15T12:44:29.543Z,76.33
2023-01-15T12:46:52.478Z,75.81
2023-01-15T12:49:20.926Z,76.33
2023-01-15T12:52:03.360Z,76.12
2023-01-15T12:54:36.110Z,76.39
2023-01-15T12:57:05.308Z,75.65
2023-01-15T13:00:00.077Z,75.10
2023-01-15T13:02:42.812Z,75.31
2023-01-15T13:05:21.085Z,75.35
2023-01-15T13:07:51.982Z,75.23
2023-01-15T13:10:22.337Z,74.30
2023-01-15T13:12:45.204Z,73.99
2023-01-15T13:15:13.125Z,73.62
2023-01-15T13:17:46.803Z,73.54
2023-01-15T13:20:27.943Z,73.20
2023-01-15T13:23:20.136Z,73.19
2023-01-15T13:26:08.548Z,73.40
2023-01-15T13:28:51.436Z,73.40
2023-01-15T13:31:40.587Z,73.82
2023-01-15T13:34:12.866Z,73.97
2023-01-15T13:36:43.600Z,74.21
2023-01-15T13:39:14.914Z,74.56
2023-01-15T13:41:56.240Z,73.89
2023-01-15T13:44:22.985Z,74.12
2023-01-15T13:46:47.320Z,73.89
2023-01-15T13:49:27.042Z,75.32
2023-01-15T13:51:50.665Z,75.07
2023-01-15T13:54:18.130Z,75.30
2023-01-15T13:56:40.826Z,75.35
2023-01-15T13:59:06.163Z,76.10
2023-01-15T14:01:35.262Z,75.78
2023-01-15T14:04:09.838Z,75.90
2023-01-15T14:06:46.652Z,75.83
2023-01-15T14:09:17.272Z,76.15
2023-01-15T14:12:07.829Z,76.55
2023-01-15T14:14:33.492Z,76.33
2023-01-15T14:17:06.206Z,76.35
2023-01-15T14:19:44.296Z,76.50
2023-01-15T14:22:39.136Z,76.46
2023-01-15T14:25:20.739Z,75.97
2023-01-15T14:27:50.671Z,75.72
2023-01-15T14:30:34.629Z,75.36
2023-01-15T14:33:18.244Z,75.46
2023-01-15T14:35:45.736Z,75.70
2023-01-15T14:38:15.559Z,75.58
2023-01-15T14:40:41.949Z,76.01
2023-01-15T14:43:14.019Z,75.88
2023-01-15T14:45:46.508Z,76.49
2023-01-15T14:48:41.662Z,76.47
2023-01-15T14:51:14.544Z,76.56
2023-01-15T14:53:43.319Z,76.75
2023-01-15T14:56:25.215Z,76.28
2023-01-15T14:59:18.636Z,76.74
2023-01-15T15:01:50.806Z,76.43
2023-01-15T15:04:34.294Z,76.60
2023-01-15T15:06:59.747Z,76.54
2023-01-15T15:09:42.413Z,76.87
2023-01-15T15:12:26.020Z,77.31
2023-01-15T15:15:16.408Z,77.36
2023-01-15T15:18:03.323Z,77.56
2023-01-15T15:20:47.781Z,77.77
2023-01-15T15:23:17.295Z,77.73
2023-01-15T15:25:40.217Z,77.52
2023-01-15T15:28:06.164Z,77.69
2023-01-15T15:30:33.395Z,77.72
2023-01-15T15:32:57.371Z,77.69
2023-01-15T15:35:29.370Z,78.13
2023-01-15T15:37:52.954Z,78.12
2023-01-15T15:40:17.860Z,78.40
2023-01-15T15:43:05.829Z,78.03
2023-01-15T15:45:49.686Z,78.40
2023-01-15T15:48:53.265Z,78.29
2023-01-15T15:51:40.142Z,78.08
2023-01-15T15:54:24.064Z,78.61
2023-01-15T15:56:58.361Z,79.07
2023-01-15T15:59:30.788Z,79.09
2023-01-15T16:01:54.576Z,79.08
2023-01-15T16:04:19.387Z,78.90
2023-01-15T16:06:42.202Z,78.93
2023-01-15T16:09:09.933Z,78.75
2023-01-15T16:11:34.515Z,78.87
2023-01-15T16:14:00.189Z,79.50
2023-01-15T16:16:27.319Z,79.35
2023-01-15T16:18:53.553Z,79.38
2023-01-15T16:21:32.350Z,79.60
2023-01-15T16:24:03.812Z,79.69
2023-01-15T16:26:32.032Z,79.63
2023-01-15T16:29:00.257Z,79.96
2023-01-15T16:31:23.681Z,80.13
2023-01-15T16:33:47.097Z,79.42
2023-01-15T16:36:10.068Z,79.07
2023-01-15T16:38:38.100Z,79.98
2023-01-15T16:41:02.194Z,80.29
2023-01-15T16:43:26.332Z,80.64
2023-01-15T16:46:16.614Z,80.73
2023-01-15T16:48:45.765Z,80.68
2023-01-15T16:51:27.168Z,80.68
2023-01-15T16:53:50.380Z,80.67
2023-01-15T16:56:39.856Z,80.72
2023-01-15T16:59:15.118Z,80.57
2023-01-15T17:01:46.645Z,80.88
2023-01-15T17:04:27.474Z,81.10
2023-01-15T17:07:17.475Z,80.69
2023-01-15T17:09:47.737Z,80.65
2023-01-15T17:12:43.565Z,80.67
2023-01-15T17:15:16.287Z,80.31
2023-01-15T17:17:38.955Z,79.92
2023-01-15T17:20:01.759Z,79.76
2023-01-15T17:22:32.710Z,79.82
2023-01-15T17:24:57.829Z,79.72
2023-01-15T17:27:21.122Z,79.50
2023-01-15T17:29:44.909Z,79.96
2023-01-15T17:32:14.527Z,80.42
2023-01-15T17:34:37.451Z,80.79
2023-01-15T17:37:00.251Z,80.69
2023-01-15T17:39:23.083Z,81.52
2023-01-15T17:41:45.876Z,81.70
2023-01-15T17:44:10.409Z,81.61
2023-01-15T17:46:33.264Z,81.84
2023-01-15T17:48:57.257Z,81.67
2023-01-15T17:51:19.761Z,81.85
2023-01-15T17:53:43.141Z,82.40
2023-01-15T17:56:24.853Z,82.29
2023-01-15T17:59:06.223Z,81.81
2023-01-15T18:01:50.949Z,81.73
2023-01-15T18:04:45.981Z,81.32
2023-01-15T18:07:09.134Z,81.17
2023-01-15T18:09:34.807Z,81.33
2023-01-15T18:11:57.755Z,80.70
2023-01-15T18:14:20.363Z,80.78
2023-01-15T18:16:43.479Z,81.06
2023-01-15T18:19:06.147Z,81.57
2023-01-15T18:21:29.112Z,81.69
2023-01-15T18:23:51.957Z,82.20
2023-01-15T18:26:14.806Z,82.62
2023-01-15T18:28:39.670Z,82.73
2023-01-15T18:31:03.632Z,82.78
2023-01-15T18:33:26.418Z,82.82
2023-01-15T18:35:49.452Z,82.65
2023-01-15T18:38:12.192Z,82.84
2023-01-15T18:40:35.311Z,82.80
2023-01-15T18:43:17.079Z,83.43
2023-01-15T18:45:58.908Z,83.36
2023-01-15T18:48:21.745Z,83.81
2023-01-15T18:50:44.638Z,83.87
2023-01-15T18:53:08.712Z,83.92
2023-01-15T18:55:31.599Z,84.54
2023-01-15T18:57:55.538Z,85.51
2023-01-15T19:00:19.734Z,85.26
2023-01-15T19:02:42.751Z,85.10
2023-01-15T19:05:06.005Z,84.88
2023-01-15T19:07:28.994Z,84.45
2023-01-15T19:09:53.743Z,84.52
2023-01-15T19:12:17.305Z,84.51
2023-01-15T19:14:58.923Z,84.63
2023-01-15T19:17:57.361Z,85.38
2023-01-15T19:20:21.019Z,86.33
2023-01-15T19:22:59.434Z,86.68
2023-01-15T19:25:23.441Z,86.73
2023-01-15T19:27:48.273Z,86.65
2023-01-15T19:30:11.720Z,86.27
2023-01-15T19:32:35.000Z,86.10
2023-01-15T19:34:57.644Z,86.76
2023-01-15T19:37:20.565Z,87.12
2023-01-15T19:39:43.994Z,86.86
2023-01-15T19:42:25.956Z,86.70
2023-01-15T19:45:07.396Z,87.54
2023-01-15T19:47:53.199Z,87.54
2023-01-15T19:50:21.544Z,87.16
2023-01-15T19:52:44.993Z,87.44
2023-01-15T19:55:13.859Z,87.74
2023-01-15T19:57:38.160Z,88.11
2023-01-15T20:00:01.235Z,88.12
2023-01-15T20:02:24.267Z,88.02
2023-01-15T20:04:47.584Z,87.67
2023-01-15T20:07:10.258Z,87.19
2023-01-15T20:09:33.319Z,86.78
2023-01-15T20:12:14.802Z,86.94
2023-01-15T20:14:37.910Z,86.79
2023-01-15T20:17:01.144Z,86.70
2023-01-15T20:19:24.699Z,86.87
2023-01-15T20:21:47.534Z,87.41
2023-01-15T20:24:10.375Z,87.10
2023-01-15T20:26:33.231Z,86.71
2023-01-15T20:28:56.150Z,86.57
2023-01-15T20:31:19.427Z,86.85
2023-01-15T20:33:42.346Z,86.65
2023-01-15T20:36:05.534Z,86.53
2023-01-15T20:38:29.764Z,86.32
2023-01-15T20:40:52.703Z,86.64
2023-01-15T20:43:34.154Z,86.83
2023-01-15T20:46:07.526Z,86.86
2023-01-15T20:48:48.875Z,87.11
2023-01-15T20:51:12.900Z,86.74
2023-01-15T20:53:35.787Z,86.47
2023-01-15T20:55:58.851Z,86.58
2023-01-15T20:58:22.203Z,86.49
2023-01-15T21:00:44.883Z,86.69
2023-01-15T21:03:07.725Z,86.24
2023-01-15T21:05:31.880Z,85.93
2023-01-15T21:07:54.590Z,85.93
2023-01-15T21:10:17.926Z,85.74
2023-01-15T21:12:40.890Z,85.96
2023-01-15T21:15:04.427Z,86.24
2023-01-15T21:17:27.070Z,86.47
2023-01-15T21:19:51.093Z,86.60
2023-01-15T21:22:13.786Z,86.16
2023-01-15T21:24:36.731Z,85.91
2023-01-15T21:26:59.635Z,86.05
2023-01-15T21:29:24.305Z,86.01
2023-01-15T21:31:47.130Z,86.62
2023-01-15T21:34:10.193Z,86.73
2023-01-15T21:36:32.737Z,86.73
2023-01-15T21:38:56.932Z,87.02
2023-01-15T21:41:20.285Z,87.20
2023-01-15T21:44:02.657Z,86.55
2023-01-15T21:46:27.978Z,86.74
2023-01-15T21:48:51.859Z,86.71
2023-01-15T21:51:14.531Z,86.72
2023-01-15T21:53:37.209Z,86.71
2023-01-15T21:55:59.782Z,86.98
2023-01-15T21:58:22.350Z,86.94
2023-01-15T22:00:45.060Z,87.06
2023-01-15T22:03:07.671Z,86.89
2023-01-15T22:05:33.836Z,87.28
2023-01-15T22:07:56.549Z,87.71
2023-01-15T22:10:19.351Z,87.73
2023-01-15T22:12:43.274Z,87.49
2023-01-15T22:15:07.478Z,87.54
2023-01-15T22:17:30.136Z,87.79
2023-01-15T22:19:55.470Z,88.15
2023-01-15T22:22:18.186Z,88.43
2023-01-15T22:24:41.383Z,88.37
2023-01-15T22:27:24.758Z,88.84
2023-01-15T22:29:47.875Z,89.05
2023-01-15T22:32:13.148Z,89.39
2023-01-15T22:34:36.091Z,89.25
2023-01-15T22:36:58.739Z,89.49
2023-01-15T22:39:25.445Z,89.43
2023-01-15T22:42:07.458Z,89.22
2023-01-15T22:44:30.276Z,89.01
2023-01-15T22:46:54.114Z,89.06
2023-01-15T22:49:17.628Z,88.94
2023-01-15T22:51:40.433Z,89.05
2023-01-15T22:54:03.070Z,89.57
2023-01-15T22:56:25.900Z,89.67
2023-01-15T22:58:48.503Z,89.72
2023-01-15T23:01:11.807Z,89.60
2023-01-15T23:03:38.195Z,89.44
2023-01-15T23:06:05.943Z,89.45
2023-01-15T23:08:32.210Z,88.83
2023-01-15T23:10:54.998Z,88.25
2023-01-15T23:13:17.719Z,87.79
2023-01-15T23:15:40.355Z,87.17
2023-01-15T23:18:03.102Z,86.86
2023-01-15T23:20:25.981Z,86.75
2023-01-15T23:22:48.750Z,86.33
2023-01-15T23:25:11.326Z,86.37
2023-01-15T23:27:33.946Z,86.41
2023-01-15T23:29:57.040Z,87.16
2023-01-15T23:32:19.648Z,87.11
2023-01-15T23:34:42.270Z,87.53
2023-01-15T23:37:04.888Z,87.91
2023-01-15T23:39:27.497Z,87.81
2023-01-15T23:42:08.922Z,87.59
2023-01-15T23:44:49.815Z,86.90
2023-01-15T23:47:12.691Z,86.79
2023-01-15T23:49:35.461Z,86.66
2023-01-15T23:51:58.660Z,86.17
2023-01-15T23:54:21.308Z,86.70
2023-01-15T23:56:46.260Z,86.85
2023-01-15T23:59:09.056Z,86.99
